Station History

Weather Underground - logo

Station Historical Data
Daily Summary for November 9, 2017 Units:  English    Metric   Both
« Previous Day
Next Day »
Daily Weekly Monthly Yearly Custom
  High: Low: Average:
Temperature: 73.7 °F 49.0 °F 60.5 °F
Dew Point: 56.2 °F 46.4 °F 51.8 °F
Humidity: 92 % 51 % 75 %
Wind Speed: 3.5 mph 0.0 mph 0.5 mph
Wind Gust: 3.5 mph - -
Wind:- - SSW
Pressure: 30.08 in 29.98 in -
Precipitation: 0.00 in    
Historical Graphs
 
 
Tabular Data for November 9, 2017
Time Temperature Dew Point Pressure Wind Wind Speed Wind Gust Humidity Rainfall Rate (Hourly)
00:03 53.9 °F 48.2 °F 30.01 in Calm     81 % 0.00 in
00:08 53.9 °F 47.9 °F 30.01 in Calm     80 % 0.00 in
00:13 53.9 °F 47.9 °F 30.01 in Calm     80 % 0.00 in
00:18 53.7 °F 47.7 °F 30.01 in Calm     80 % 0.00 in
00:23 53.5 °F 47.8 °F 30.01 in Calm     81 % 0.00 in
00:24 53.5 °F 47.8 °F 30.01 in Calm     81 % 0.00 in
00:30 53.2 °F 47.8 °F 30.01 in Calm     82 % 0.00 in
00:35 52.8 °F 47.5 °F 30.01 in Calm     82 % 0.00 in
00:40 52.5 °F 47.5 °F 30.02 in Calm     83 % 0.00 in
00:45 52.3 °F 47.3 °F 30.02 in Calm     83 % 0.00 in
00:50 52.1 °F 47.4 °F 30.02 in Calm     84 % 0.00 in
00:55 52.5 °F 47.8 °F 30.02 in Calm     84 % 0.00 in
01:00 52.7 °F 48.0 °F 30.02 in Calm     84 % 0.00 in
01:05 52.8 °F 48.1 °F 30.02 in Calm     84 % 0.00 in
01:10 53.1 °F 49.0 °F 30.01 in Calm     86 % 0.00 in
01:15 53.9 °F 49.5 °F 30.01 in Calm     85 % 0.00 in
01:20 54.5 °F 49.8 °F 30.01 in Calm     84 % 0.00 in
01:25 54.6 °F 49.9 °F 30.02 in NNE 1.2 mph   84 % 0.00 in
01:30 54.5 °F 49.4 °F 30.02 in Calm     83 % 0.00 in
01:35 54.3 °F 49.6 °F 30.02 in Calm     84 % 0.00 in
01:40 54.0 °F 49.6 °F 30.02 in Calm     85 % 0.00 in
01:45 54.1 °F 50.0 °F 30.02 in Calm     86 % 0.00 in
01:50 54.2 °F 49.8 °F 30.02 in Calm     85 % 0.00 in
02:00 53.8 °F 49.7 °F 30.02 in NNE 1.2 mph 1.2 mph 86 % 0.00 in
02:09 54.0 °F 49.9 °F 30.02 in Calm     86 % 0.00 in
02:14 53.9 °F 49.8 °F 30.02 in Calm     86 % 0.00 in
02:19 54.0 °F 49.9 °F 30.02 in Calm     86 % 0.00 in
02:24 53.5 °F 49.1 °F 30.02 in Calm     85 % 0.00 in
02:29 53.1 °F 49.0 °F 30.02 in Calm     86 % 0.00 in
02:34 52.8 °F 49.0 °F 30.02 in Calm     87 % 0.00 in
02:39 52.8 °F 49.3 °F 30.02 in Calm     88 % 0.00 in
02:44 52.8 °F 49.3 °F 30.02 in Calm     88 % 0.00 in
02:49 52.7 °F 49.2 °F 30.02 in Calm     88 % 0.00 in
02:54 52.4 °F 48.9 °F 30.03 in NNE 2.0 mph 2.0 mph 88 % 0.00 in
02:59 51.7 °F 47.6 °F 30.02 in Calm     86 % 0.00 in
03:04 50.9 °F 47.2 °F 30.02 in Calm     87 % 0.00 in
03:09 50.6 °F 47.2 °F 30.02 in Calm     88 % 0.00 in
03:14 50.4 °F 47.3 °F 30.02 in Calm     89 % 0.00 in
03:19 50.6 °F 47.8 °F 30.02 in Calm     90 % 0.00 in
03:24 50.7 °F 48.2 °F 30.02 in Calm     91 % 0.00 in
03:29 50.9 °F 48.4 °F 30.02 in Calm     91 % 0.00 in
03:34 50.9 °F 48.4 °F 30.02 in Calm     91 % 0.00 in
03:39 51.0 °F 48.5 °F 30.02 in Calm     91 % 0.00 in
03:44 51.1 °F 48.3 °F 30.02 in Calm     90 % 0.00 in
03:49 50.9 °F 47.8 °F 30.02 in Calm     89 % 0.00 in
03:55 51.0 °F 48.5 °F 30.02 in Calm     91 % 0.00 in
04:00 51.2 °F 48.4 °F 30.02 in Calm     90 % 0.00 in
04:05 51.1 °F 48.3 °F 30.02 in Calm     90 % 0.00 in
04:10 50.9 °F 48.1 °F 30.02 in Calm     90 % 0.00 in
04:15 50.7 °F 47.9 °F 30.03 in Calm     90 % 0.00 in
04:20 50.2 °F 47.1 °F 30.03 in Calm     89 % 0.00 in
04:25 49.9 °F 47.1 °F 30.03 in Calm     90 % 0.00 in
04:30 49.9 °F 47.4 °F 30.03 in Calm     91 % 0.00 in
04:35 50.3 °F 48.1 °F 30.03 in Calm     92 % 0.00 in
04:40 50.1 °F 47.6 °F 30.03 in Calm     91 % 0.00 in
04:45 49.9 °F 47.1 °F 30.03 in Calm     90 % 0.00 in
04:50 49.7 °F 46.9 °F 30.03 in Calm     90 % 0.00 in
04:55 49.2 °F 46.4 °F 30.04 in Calm     90 % 0.00 in
05:00 49.0 °F 46.5 °F 30.04 in Calm     91 % 0.00 in
05:05 49.1 °F 46.9 °F 30.04 in Calm     92 % 0.00 in
05:10 49.2 °F 47.0 °F 30.04 in Calm     92 % 0.00 in
05:15 49.4 °F 46.9 °F 30.04 in Calm     91 % 0.00 in
05:20 49.4 °F 46.9 °F 30.04 in Calm     91 % 0.00 in
05:25 49.5 °F 47.0 °F 30.04 in Calm     91 % 0.00 in
05:30 49.6 °F 47.1 °F 30.05 in Calm     91 % 0.00 in
05:35 49.8 °F 47.0 °F 30.05 in Calm     90 % 0.00 in
05:40 50.0 °F 46.9 °F 30.05 in Calm     89 % 0.00 in
05:45 50.0 °F 46.9 °F 30.05 in Calm     89 % 0.00 in
05:50 50.2 °F 47.1 °F 30.05 in Calm     89 % 0.00 in
05:55 50.3 °F 47.2 °F 30.05 in Calm     89 % 0.00 in
06:00 50.4 °F 47.0 °F 30.05 in Calm     88 % 0.00 in
06:05 50.5 °F 47.4 °F 30.05 in Calm     89 % 0.00 in
06:10 50.8 °F 47.7 °F 30.05 in Calm     89 % 0.00 in
06:15 51.0 °F 47.6 °F 30.05 in Calm     88 % 0.00 in
06:20 51.2 °F 47.8 °F 30.05 in Calm     88 % 0.00 in
06:25 51.2 °F 47.8 °F 30.05 in Calm     88 % 0.00 in
06:30 51.0 °F 47.6 °F 30.05 in Calm     88 % 0.00 in
06:35 51.1 °F 48.0 °F 30.05 in Calm     89 % 0.00 in
06:40 51.0 °F 47.6 °F 30.05 in Calm     88 % 0.00 in
06:45 50.7 °F 47.3 °F 30.05 in Calm     88 % 0.00 in
06:50 50.3 °F 46.9 °F 30.05 in Calm     88 % 0.00 in
06:55 50.0 °F 46.9 °F 30.05 in Calm     89 % 0.00 in
07:00 49.7 °F 46.6 °F 30.06 in Calm     89 % 0.00 in
07:05 49.5 °F 46.4 °F 30.06 in Calm     89 % 0.00 in
07:10 49.5 °F 46.7 °F 30.06 in Calm     90 % 0.00 in
07:15 49.5 °F 47.0 °F 30.06 in Calm     91 % 0.00 in
07:20 49.8 °F 47.3 °F 30.06 in Calm     91 % 0.00 in
07:26 50.6 °F 48.4 °F 30.07 in Calm     92 % 0.00 in
07:31 51.5 °F 49.3 °F 30.07 in NNE 1.2 mph 1.2 mph 92 % 0.00 in
07:36 52.8 °F 49.9 °F 30.07 in Calm     90 % 0.00 in
07:41 54.3 °F 50.8 °F 30.07 in Calm     88 % 0.00 in
07:46 55.4 °F 51.0 °F 30.07 in Calm     85 % 0.00 in
07:51 56.6 °F 51.5 °F 30.07 in Calm     83 % 0.00 in
07:56 57.9 °F 52.4 °F 30.07 in Calm     82 % 0.00 in
08:01 60.1 °F 53.2 °F 30.07 in Calm     78 % 0.00 in
08:06 61.2 °F 53.2 °F 30.07 in Calm     75 % 0.00 in
08:11 62.0 °F 53.2 °F 30.07 in Calm     73 % 0.00 in
08:16 62.9 °F 54.1 °F 30.07 in Calm     73 % 0.00 in
08:21 64.4 °F 54.0 °F 30.07 in Calm     69 % 0.00 in
08:26 65.5 °F 54.7 °F 30.07 in Calm     68 % 0.00 in
08:31 66.6 °F 54.9 °F 30.07 in Calm     66 % 0.00 in
08:36 67.4 °F 55.2 °F 30.07 in Calm     65 % 0.00 in
08:41 67.9 °F 54.4 °F 30.07 in WNW 1.2 mph 1.2 mph 62 % 0.00 in
08:46 67.3 °F 54.3 °F 30.07 in Calm     63 % 0.00 in
08:51 67.6 °F 53.7 °F 30.07 in Calm     61 % 0.00 in
08:56 67.9 °F 54.0 °F 30.07 in East 1.2 mph 1.2 mph 61 % 0.00 in
09:01 67.9 °F 53.5 °F 30.08 in SE 1.2 mph   60 % 0.00 in
09:06 68.3 °F 53.9 °F 30.08 in South 1.2 mph 1.2 mph 60 % 0.00 in
09:11 68.3 °F 54.3 °F 30.08 in South 1.2 mph 1.2 mph 61 % 0.00 in
09:16 67.9 °F 54.0 °F 30.08 in Calm     61 % 0.00 in
09:21 67.8 °F 53.9 °F 30.08 in Calm   0.1 mph 61 % 0.00 in
09:26 67.7 °F 53.8 °F 30.08 in Calm     61 % 0.00 in
09:31 67.8 °F 53.9 °F 30.08 in Calm     61 % 0.00 in
09:36 68.1 °F 54.6 °F 30.08 in Calm     62 % 0.00 in
09:41 68.3 °F 54.8 °F 30.08 in WSW 1.2 mph   62 % 0.00 in
09:46 68.6 °F 54.6 °F 30.08 in South 2.3 mph 2.3 mph 61 % 0.00 in
09:51 68.8 °F 54.3 °F 30.08 in SSW 2.3 mph 2.3 mph 60 % 0.00 in
09:56 68.7 °F 54.7 °F 30.08 in WNW 1.2 mph 1.2 mph 61 % 0.00 in
10:01 68.6 °F 54.6 °F 30.08 in NW 1.2 mph 1.2 mph 61 % 0.00 in
10:06 68.6 °F 54.6 °F 30.08 in NW 1.2 mph 1.2 mph 61 % 0.00 in
10:11 68.8 °F 54.8 °F 30.07 in ENE 1.2 mph 1.2 mph 61 % 0.00 in
10:16 69.3 °F 55.7 °F 30.07 in South 2.3 mph 2.3 mph 62 % 0.00 in
10:21 70.0 °F 55.5 °F 30.07 in SSE 2.3 mph   60 % 0.00 in
10:26 70.2 °F 54.2 °F 30.07 in WNW 1.2 mph   57 % 0.00 in
10:31 70.3 °F 56.2 °F 30.07 in South 3.5 mph 3.5 mph 61 % 0.00 in
10:36 70.4 °F 54.4 °F 30.07 in West 1.2 mph 1.2 mph 57 % 0.00 in
10:41 70.5 °F 55.0 °F 30.07 in NNW 3.0 mph 3.0 mph 58 % 0.00 in
10:46 70.3 °F 54.8 °F 30.07 in NNW 1.2 mph   58 % 0.00 in
10:51 70.2 °F 55.2 °F 30.07 in NW 1.2 mph   59 % 0.00 in
10:57 70.7 °F 55.2 °F 30.07 in SSE 3.5 mph 3.5 mph 58 % 0.00 in
11:02 71.1 °F 56.0 °F 30.07 in SSW 1.2 mph 1.2 mph 59 % 0.00 in
11:07 71.2 °F 55.7 °F 30.06 in SE 3.0 mph 3.0 mph 58 % 0.00 in
11:12 71.2 °F 55.2 °F 30.06 in South 2.0 mph 2.0 mph 57 % 0.00 in
11:17 70.9 °F 54.9 °F 30.06 in WNW 2.3 mph 2.3 mph 57 % 0.00 in
11:22 70.8 °F 55.3 °F 30.06 in ESE 2.3 mph 2.3 mph 58 % 0.00 in
11:27 71.1 °F 55.6 °F 30.05 in ESE 2.3 mph 2.3 mph 58 % 0.00 in
11:32 71.4 °F 55.4 °F 30.05 in East 3.5 mph 3.5 mph 57 % 0.00 in
11:37 71.4 °F 55.4 °F 30.05 in East 1.2 mph 1.2 mph 57 % 0.00 in
11:42 71.8 °F 55.7 °F 30.05 in SSE 3.5 mph 3.5 mph 57 % 0.00 in
11:47 72.3 °F 55.7 °F 30.05 in SSW 3.5 mph 3.5 mph 56 % 0.00 in
11:52 71.9 °F 55.3 °F 30.04 in ESE 1.2 mph 1.2 mph 56 % 0.00 in
11:57 72.1 °F 55.5 °F 30.04 in SSE 3.5 mph 3.5 mph 56 % 0.00 in
12:02 72.4 °F 55.8 °F 30.04 in South 2.3 mph 2.3 mph 56 % 0.00 in
12:07 72.7 °F 55.6 °F 30.03 in South 1.0 mph   55 % 0.00 in
12:12 72.5 °F 54.4 °F 30.03 in NW 2.3 mph 2.3 mph 53 % 0.00 in
12:17 71.9 °F 55.3 °F 30.03 in West 2.3 mph 2.3 mph 56 % 0.00 in
12:19 71.8 °F 55.3 °F 30.03 in SSE 3.0 mph 3.0 mph 56 % 0.00 in
12:24 72.0 °F 55.9 °F 30.02 in South 3.5 mph 3.5 mph 57 % 0.00 in
12:29 72.0 °F 55.4 °F 30.02 in WNW 2.3 mph   56 % 0.00 in
12:34 72.6 °F 55.5 °F 30.02 in NW 1.0 mph 1.0 mph 55 % 0.00 in
12:39 72.8 °F 56.2 °F 30.02 in WSW 3.5 mph   56 % 0.00 in
12:44 72.7 °F 56.1 °F 30.02 in SSE 1.2 mph   56 % 0.00 in
12:49 73.0 °F 55.4 °F 30.01 in WNW 1.2 mph 1.2 mph 54 % 0.00 in
12:54 72.8 °F 55.7 °F 30.01 in SE 1.2 mph   55 % 0.00 in
12:59 73.1 °F 56.0 °F 30.01 in SE 3.5 mph 3.5 mph 55 % 0.00 in
13:04 73.4 °F 54.7 °F 30.01 in Calm     52 % 0.00 in
13:09 73.4 °F 55.2 °F 30.01 in SE 3.5 mph 3.5 mph 53 % 0.00 in
13:14 73.5 °F 55.3 °F 30.00 in ESE 1.2 mph 1.2 mph 53 % 0.00 in
13:19 73.5 °F 55.8 °F 30.00 in East 3.5 mph 3.5 mph 54 % 0.00 in
13:25 73.7 °F 55.0 °F 30.00 in WNW 2.3 mph 2.3 mph 52 % 0.00 in
13:30 73.6 °F 55.4 °F 30.00 in NW 2.3 mph 2.3 mph 53 % 0.00 in
13:35 73.3 °F 54.6 °F 30.00 in Calm     52 % 0.00 in
13:40 73.1 °F 54.9 °F 30.00 in NNW 2.3 mph 2.3 mph 53 % 0.00 in
13:45 72.8 °F 54.7 °F 30.00 in Calm     53 % 0.00 in
13:50 72.9 °F 54.8 °F 30.00 in SE 2.3 mph 2.3 mph 53 % 0.00 in
13:55 73.3 °F 55.1 °F 30.00 in WNW 1.2 mph 1.2 mph 53 % 0.00 in
14:00 73.2 °F 54.0 °F 30.00 in SSE 2.3 mph 2.3 mph 51 % 0.00 in
14:05 73.5 °F 54.8 °F 30.00 in SE 3.5 mph 3.5 mph 52 % 0.00 in
14:10 73.6 °F 54.9 °F 30.00 in SSE 3.5 mph 3.5 mph 52 % 0.00 in
14:15 73.4 °F 54.7 °F 30.00 in ENE 2.3 mph 2.3 mph 52 % 0.00 in
14:20 73.3 °F 54.6 °F 30.00 in SSE 1.2 mph 1.2 mph 52 % 0.00 in
14:25 73.3 °F 54.6 °F 30.00 in WNW 1.2 mph   52 % 0.00 in
14:30 73.1 °F 54.9 °F 30.00 in NNW 1.2 mph   53 % 0.00 in
14:35 73.0 °F 54.9 °F 30.00 in Calm     53 % 0.00 in
14:36 72.9 °F 54.8 °F 30.00 in Calm     53 % 0.00 in
14:41 72.7 °F 54.1 °F 30.00 in WNW 2.3 mph 2.3 mph 52 % 0.00 in
14:46 72.4 °F 54.3 °F 30.00 in Calm     53 % 0.00 in
14:51 72.4 °F 54.3 °F 30.00 in WNW 2.3 mph 2.3 mph 53 % 0.00 in
14:56 72.2 °F 54.6 °F 30.00 in NW 1.2 mph 1.2 mph 54 % 0.00 in
15:01 71.8 °F 54.8 °F 30.00 in WNW 1.2 mph 1.2 mph 55 % 0.00 in
15:06 71.7 °F 54.7 °F 30.00 in Calm     55 % 0.00 in
15:11 71.6 °F 54.6 °F 30.00 in Calm     55 % 0.00 in
15:16 71.6 °F 54.6 °F 30.00 in SW 1.2 mph   55 % 0.00 in
15:21 71.5 °F 54.0 °F 29.99 in Calm     54 % 0.00 in
15:26 71.3 °F 54.8 °F 29.99 in SE 1.2 mph 1.2 mph 56 % 0.00 in
15:31 71.1 °F 54.6 °F 29.99 in Calm     56 % 0.00 in
15:36 71.1 °F 55.1 °F 29.99 in Calm     57 % 0.00 in
15:41 70.9 °F 54.4 °F 29.99 in West 1.2 mph   56 % 0.00 in
15:46 70.8 °F 54.3 °F 29.99 in Calm     56 % 0.00 in
15:51 70.6 °F 54.1 °F 29.99 in Calm     56 % 0.00 in
15:56 70.5 °F 54.0 °F 29.98 in SW 1.2 mph 1.2 mph 56 % 0.00 in
16:01 70.5 °F 54.5 °F 29.98 in West 1.2 mph   57 % 0.00 in
16:06 70.3 °F 54.3 °F 29.98 in Calm     57 % 0.00 in
16:11 70.1 °F 54.6 °F 29.98 in Calm     58 % 0.00 in
16:16 69.8 °F 54.4 °F 29.98 in Calm     58 % 0.00 in
16:21 69.5 °F 54.1 °F 29.98 in Calm     58 % 0.00 in
16:26 69.2 °F 54.3 °F 29.98 in Calm     59 % 0.00 in
16:31 68.8 °F 54.3 °F 29.98 in Calm     60 % 0.00 in
16:36 68.3 °F 54.3 °F 29.98 in Calm     61 % 0.00 in
16:41 67.7 °F 55.1 °F 29.98 in Calm     64 % 0.00 in
16:46 67.1 °F 54.5 °F 29.98 in Calm     64 % 0.00 in
16:51 66.5 °F 54.4 °F 29.98 in Calm     65 % 0.00 in
16:56 65.8 °F 54.1 °F 29.98 in Calm     66 % 0.00 in
17:01 65.2 °F 54.0 °F 29.98 in Calm     67 % 0.00 in
17:06 64.7 °F 53.9 °F 29.98 in Calm     68 % 0.00 in
17:11 64.1 °F 54.5 °F 29.98 in Calm     71 % 0.00 in
17:16 63.6 °F 54.0 °F 29.98 in Calm     71 % 0.00 in
17:21 63.2 °F 54.0 °F 29.98 in Calm     72 % 0.00 in
17:26 63.0 °F 53.8 °F 29.98 in Calm     72 % 0.00 in
17:31 62.8 °F 54.0 °F 29.98 in Calm     73 % 0.00 in
17:36 62.5 °F 54.1 °F 29.98 in Calm     74 % 0.00 in
17:42 62.0 °F 54.0 °F 29.98 in Calm     75 % 0.00 in
17:47 61.7 °F 54.1 °F 29.98 in Calm     76 % 0.00 in
17:52 61.4 °F 54.1 °F 29.98 in Calm     77 % 0.00 in
17:57 61.2 °F 53.9 °F 29.99 in Calm     77 % 0.00 in
18:02 61.2 °F 53.9 °F 29.99 in Calm     77 % 0.00 in
18:07 61.2 °F 53.9 °F 29.99 in Calm     77 % 0.00 in
18:12 61.1 °F 53.5 °F 29.99 in Calm     76 % 0.00 in
18:17 60.9 °F 53.3 °F 29.99 in Calm     76 % 0.00 in
18:22 60.7 °F 53.1 °F 29.99 in Calm     76 % 0.00 in
18:27 60.4 °F 53.5 °F 29.99 in Calm     78 % 0.00 in
18:32 60.3 °F 53.4 °F 29.99 in Calm     78 % 0.00 in
18:37 60.1 °F 53.2 °F 29.99 in Calm     78 % 0.00 in
18:42 60.0 °F 53.1 °F 29.99 in Calm     78 % 0.00 in
18:47 59.8 °F 52.9 °F 29.99 in Calm     78 % 0.00 in
18:52 59.5 °F 52.6 °F 29.99 in Calm     78 % 0.00 in
18:57 59.2 °F 52.7 °F 29.99 in Calm     79 % 0.00 in
19:02 59.0 °F 52.8 °F 29.99 in Calm     80 % 0.00 in
19:07 59.0 °F 52.8 °F 29.99 in Calm     80 % 0.00 in
19:12 59.1 °F 52.9 °F 30.00 in Calm     80 % 0.00 in
19:17 59.0 °F 52.8 °F 30.00 in Calm     80 % 0.00 in
19:22 58.8 °F 52.6 °F 30.00 in Calm     80 % 0.00 in
19:27 58.6 °F 52.4 °F 30.00 in Calm     80 % 0.00 in
19:32 58.4 °F 52.6 °F 30.00 in Calm     81 % 0.00 in
19:37 58.1 °F 52.3 °F 30.00 in Calm     81 % 0.00 in
19:42 57.6 °F 52.1 °F 30.00 in Calm     82 % 0.00 in
19:47 57.3 °F 52.2 °F 30.00 in Calm     83 % 0.00 in
19:52 57.1 °F 52.3 °F 30.00 in Calm     84 % 0.00 in
19:57 57.0 °F 52.2 °F 30.00 in Calm     84 % 0.00 in
20:02 56.7 °F 51.9 °F 30.00 in Calm     84 % 0.00 in
20:07 56.4 °F 51.6 °F 30.01 in Calm     84 % 0.00 in
20:12 56.0 °F 51.6 °F 30.01 in Calm     85 % 0.00 in
20:17 55.9 °F 51.5 °F 30.01 in Calm     85 % 0.00 in
20:22 56.0 °F 51.6 °F 30.01 in Calm     85 % 0.00 in
20:27 56.1 °F 51.7 °F 30.01 in Calm     85 % 0.00 in
20:32 56.0 °F 51.6 °F 30.01 in Calm     85 % 0.00 in
20:37 56.0 °F 51.6 °F 30.01 in Calm     85 % 0.00 in
20:42 56.0 °F 51.6 °F 30.01 in Calm     85 % 0.00 in
20:47 56.0 °F 51.6 °F 30.01 in Calm     85 % 0.00 in
20:52 56.1 °F 51.7 °F 30.01 in Calm     85 % 0.00 in
20:57 56.1 °F 51.7 °F 30.01 in Calm     85 % 0.00 in
21:02 56.1 °F 51.7 °F 30.01 in Calm     85 % 0.00 in
21:07 56.1 °F 51.7 °F 30.01 in Calm     85 % 0.00 in
21:12 56.2 °F 51.7 °F 30.01 in Calm     85 % 0.00 in
21:17 56.3 °F 51.8 °F 30.01 in Calm     85 % 0.00 in
21:22 56.3 °F 51.8 °F 30.01 in Calm     85 % 0.00 in
21:27 56.3 °F 51.8 °F 30.01 in Calm     85 % 0.00 in
21:33 56.3 °F 51.8 °F 30.01 in Calm     85 % 0.00 in
21:38 56.3 °F 51.8 °F 30.01 in Calm     85 % 0.00 in
21:42 56.5 °F 51.7 °F 30.01 in Calm     84 % 0.00 in
21:47 56.7 °F 51.9 °F 30.01 in Calm     84 % 0.00 in
21:52 56.6 °F 51.8 °F 30.01 in Calm     84 % 0.00 in
21:58 56.4 °F 51.6 °F 30.01 in Calm     84 % 0.00 in
22:03 56.1 °F 51.3 °F 30.01 in Calm     84 % 0.00 in
22:08 55.8 °F 51.4 °F 30.01 in Calm     85 % 0.00 in
22:13 55.6 °F 51.2 °F 30.01 in Calm     85 % 0.00 in
22:18 55.4 °F 51.0 °F 30.01 in Calm     85 % 0.00 in
22:23 54.9 °F 51.1 °F 30.02 in Calm     87 % 0.00 in
22:28 54.7 °F 50.9 °F 30.02 in Calm     87 % 0.00 in
22:33 54.7 °F 51.2 °F 30.02 in Calm     88 % 0.00 in
22:38 54.5 °F 50.7 °F 30.02 in Calm     87 % 0.00 in
22:43 54.2 °F 50.7 °F 30.02 in Calm     88 % 0.00 in
22:48 54.0 °F 50.5 °F 30.02 in Calm     88 % 0.00 in
22:53 53.7 °F 50.2 °F 30.02 in Calm     88 % 0.00 in
22:58 53.7 °F 50.5 °F 30.02 in Calm     89 % 0.00 in
23:03 53.7 °F 50.5 °F 30.02 in Calm     89 % 0.00 in
23:08 53.6 °F 50.4 °F 30.02 in Calm     89 % 0.00 in
23:13 53.6 °F 50.7 °F 30.02 in West 1.2 mph   90 % 0.00 in
23:18 54.0 °F 50.8 °F 30.02 in Calm     89 % 0.00 in
23:23 54.3 °F 51.1 °F 30.02 in Calm     89 % 0.00 in
23:28 54.3 °F 50.8 °F 30.02 in Calm     88 % 0.00 in
23:33 54.3 °F 50.8 °F 30.02 in Calm     88 % 0.00 in
23:38 54.4 °F 51.2 °F 30.02 in Calm     89 % 0.00 in
23:43 54.6 °F 51.1 °F 30.02 in Calm     88 % 0.00 in
23:48 54.7 °F 51.2 °F 30.02 in Calm     88 % 0.00 in
23:53 54.9 °F 51.4 °F 30.02 in Calm     88 % 0.00 in
23:58 55.1 °F 51.6 °F 30.02 in Calm     88 % 0.00 in
Park Place, Exeter, Tulare County, California, USA
Compliments of Weather Underground - 2.75 mb